Friday, July 20, 2018, 12:40 PM EDT
Back to Local

KAOO, Altoona-blair County Airport

Location: Martinsburg, PA, United States Lat: 40.3
Local Time: 12:40 PM EDT (16:40 GMT) Lon: -78.317
Time Zone: US/Eastern Elev: 1502 ft

Show me the last for .
Show Decoded

2018-07-20 11:53 METAR KAOO 201553Z AUTO 16016G20KT 10SM FEW038 27/16 A3012 RMK AO2 SLP190
                 T02720161 =
2018-07-20 10:53 METAR KAOO 201453Z AUTO 16011KT 10SM FEW030 26/17 A3013 RMK AO2 SLP193 T02560172
                 58002 =
2018-07-20 09:53 METAR KAOO 201353Z AUTO 15007G15KT 10SM FEW029 24/17 A3014 RMK AO2 SLP196
                 T02440167 =
2018-07-20 08:53 METAR KAOO 201253Z AUTO 15007KT 10SM CLR 23/17 A3014 RMK AO2 SLP197 T02280167 =
2018-07-20 08:21 METAR KAOO 201221Z AUTO VRB03KT 10SM FEW002 21/16 A3014 RMK AO2 T02110161 =
2018-07-20 07:53 METAR KAOO 201153Z AUTO 14003KT 10SM CLR 21/16 A3013 RMK AO2 SLP195 T02060156
                 10206 20156 53006 =
2018-07-20 06:53 METAR KAOO 201053Z AUTO 00000KT 8SM FEW055 17/14 A3013 RMK AO2 SLP194 T01670139
                 =
2018-07-20 05:53 METAR KAOO 200953Z AUTO 00000KT 9SM CLR 16/13 A3012 RMK AO2 SLP191 T01610133 =
2018-07-20 04:53 METAR KAOO 200853Z AUTO 00000KT 10SM CLR 17/14 A3012 RMK AO2 SLP188 T01670139
                 58001 =
2018-07-20 03:53 METAR KAOO 200753Z AUTO 28003KT 10SM CLR 17/14 A3012 RMK AO2 SLP189 T01720139 =
2018-07-20 02:53 METAR KAOO 200653Z AUTO 20006KT 10SM CLR 19/13 A3012 RMK AO2 SLP189 T01890133 =
2018-07-20 01:53 METAR KAOO 200553Z AUTO 00000KT 10SM CLR 18/14 A3012 RMK AO2 SLP190 T01780144
                 10250 20172 58000 =
2018-07-20 00:53 METAR KAOO 200453Z AUTO 00000KT 10SM CLR 18/14 A3013 RMK AO2 SLP192 T01830144
                 402780144 =
2018-07-19 23:53 METAR KAOO 200353Z AUTO 00000KT 10SM CLR 18/15 A3013 RMK AO2 SLP192 T01830150 =
2018-07-19 22:53 METAR KAOO 200253Z AUTO 18003KT 10SM CLR 20/14 A3012 RMK AO2 SLP191 T02000139
                 53008 =
2018-07-19 21:53 METAR KAOO 200153Z AUTO 14003KT 10SM CLR 20/15 A3011 RMK AO2 SLP187 T02000150 =
2018-07-19 20:53 METAR KAOO 200053Z AUTO 16003KT 10SM CLR 22/16 A3010 RMK AO2 SLP184 T02170156 =
2018-07-19 19:53 METAR KAOO 192353Z AUTO 18004KT 10SM CLR 25/14 A3010 RMK AO2 SLP182 T02500144
                 10278 20250 56005 =
2018-07-19 18:53 METAR KAOO 192253Z AUTO 20006KT 10SM CLR 26/14 A3010 RMK AO2 SLP182 T02610139 =
2018-07-19 17:53 METAR KAOO 192153Z AUTO 14004KT 10SM CLR 27/14 A3010 RMK AO2 SLP184 T02720139 =
2018-07-19 16:53 METAR KAOO 192053Z AUTO 16006KT 10SM CLR 27/13 A3011 RMK AO2 SLP188 T02720128
                 56008 =
2018-07-19 15:53 METAR KAOO 191953Z AUTO 13005KT 10SM CLR 28/13 A3012 RMK AO2 SLP188 T02780133 =
2018-07-19 14:53 METAR KAOO 191853Z AUTO VRB03KT 10SM CLR 26/14 A3012 RMK AO2 SLP191 T02610139 =
2018-07-19 13:53 METAR KAOO 191753Z AUTO VRB04KT 10SM SCT048 26/14 A3014 RMK AO2 SLP195 T02560139
                 10261 20178 58009 =
2018-07-19 12:53 METAR KAOO 191653Z AUTO 08005KT 10SM 26/14 A3015 RMK AO2 SLP201 T02560144 $ =

Support USWX by starting your Amazon purchase here.